Time;durP1;ratioP1;P1;durP2;ratioP2;P2;SDS_P1;SDS_P2;PMS_P1;PMS_P2;Temp;Humidity;BMP_temperature;BMP_pressure;BME280_temperature;BME280_humidity;BME280_pressure;Samples;Min_cycle;Max_cycle;Signal;HPM_P1;HPM_P2
2022/03/01 00:01:19;;;;;;;12.43;8.25;;;;;;;2.69;56.72;101597.06;5012960;28;20061;-80
2022/03/01 00:03:47;;;;;;;11.93;8.05;;;;;;;2.54;57.66;101596.63;5017343;28;20053;-80
2022/03/01 00:06:14;;;;;;;12.45;8.10;;;;;;;2.64;57.23;101596.91;5014349;28;20057;-80
2022/03/01 00:08:41;;;;;;;14.35;8.68;;;;;;;2.62;57.55;101597.16;5018683;28;20050;-80
2022/03/01 00:11:09;;;;;;;10.43;7.70;;;;;;;2.53;56.84;101593.03;5013477;28;20054;-81
2022/03/01 00:13:36;;;;;;;10.57;7.30;;;;;;;2.58;56.75;101586.84;5011264;28;20042;-81
2022/03/01 00:16:06;;;;;;;13.82;8.50;;;;;;;2.61;57.18;101591.88;5005558;28;20121;-80
2022/03/01 00:18:33;;;;;;;11.40;7.65;;;;;;;2.64;56.60;101591.41;5013612;28;20046;-81
2022/03/01 00:21:01;;;;;;;11.55;7.57;;;;;;;2.68;57.20;101587.13;5018557;28;20088;-81
2022/03/01 00:23:28;;;;;;;10.38;7.57;;;;;;;2.70;56.94;101590.47;5016811;28;20056;-81
2022/03/01 00:25:58;;;;;;;11.13;7.88;;;;;;;2.66;57.01;101589.25;5016059;28;20056;-80
2022/03/01 00:28:25;;;;;;;10.48;7.35;;;;;;;2.64;57.07;101589.50;5003884;28;20081;-80
2022/03/01 00:30:52;;;;;;;9.35;6.97;;;;;;;2.66;58.03;101593.94;5007350;28;20054;-79
2022/03/01 00:33:21;;;;;;;9.40;6.75;;;;;;;2.64;58.37;101591.41;5002838;28;20046;-80
2022/03/01 00:35:48;;;;;;;8.45;6.28;;;;;;;2.63;58.02;101581.50;5001384;28;20046;-80
2022/03/01 00:38:18;;;;;;;10.98;7.45;;;;;;;2.63;58.17;101590.56;5008966;28;20055;-80
2022/03/01 00:40:46;;;;;;;9.60;6.32;;;;;;;2.65;57.62;101601.34;5011660;28;20065;-80
2022/03/01 00:43:14;;;;;;;9.95;6.80;;;;;;;2.58;58.28;101581.34;5002073;28;20134;-81
2022/03/01 00:45:42;;;;;;;9.52;6.40;;;;;;;2.55;58.21;101598.31;5009711;28;20492;-80
2022/03/01 00:48:10;;;;;;;9.75;7.28;;;;;;;2.53;58.39;101595.78;5009500;28;20045;-81
2022/03/01 00:50:39;;;;;;;9.30;6.63;;;;;;;2.48;58.71;101594.81;5016595;28;20395;-81
2022/03/01 00:53:06;;;;;;;10.73;7.15;;;;;;;2.44;58.41;101592.53;5000459;28;20050;-81
2022/03/01 00:55:34;;;;;;;10.98;7.07;;;;;;;2.42;58.49;101591.94;5011098;28;20054;-82
2022/03/01 00:58:04;;;;;;;12.27;6.30;;;;;;;2.43;58.48;101590.84;5006609;28;20057;-81
2022/03/01 01:00:33;;;;;;;10.05;6.28;;;;;;;2.40;58.20;101599.56;5003316;28;20065;-81
2022/03/01 01:03:01;;;;;;;9.50;6.80;;;;;;;2.37;58.52;101591.81;5008567;28;20053;-80
2022/03/01 01:05:29;;;;;;;9.02;6.57;;;;;;;2.38;58.46;101592.63;5005078;28;20046;-81
2022/03/01 01:07:58;;;;;;;9.73;6.80;;;;;;;2.35;58.44;101598.59;5018368;28;20459;-82
2022/03/01 01:10:26;;;;;;;10.82;6.72;;;;;;;2.33;58.66;101585.09;5020514;28;20072;-80
2022/03/01 01:12:53;;;;;;;9.65;6.47;;;;;;;2.33;58.60;101593.34;5014017;28;20050;-79
2022/03/01 01:15:21;;;;;;;10.70;6.18;;;;;;;2.28;58.71;101586.84;5020185;28;20061;-79
2022/03/01 01:17:49;;;;;;;9.65;6.25;;;;;;;2.22;58.30;101591.34;5010845;28;20464;-80
2022/03/01 01:20:18;;;;;;;8.90;6.15;;;;;;;2.22;59.31;101591.34;5009877;28;20054;-80
2022/03/01 01:22:46;;;;;;;9.95;6.65;;;;;;;2.19;59.10;101589.91;5011977;28;20058;-80
2022/03/01 01:25:17;;;;;;;9.13;6.85;;;;;;;2.17;59.31;101588.47;5018754;28;20050;-81
2022/03/01 01:27:48;;;;;;;8.57;5.95;;;;;;;2.10;58.93;101579.44;5015390;28;20054;-79
2022/03/01 01:30:17;;;;;;;10.13;6.78;;;;;;;2.06;58.70;101584.59;5013184;28;20053;-80
2022/03/01 01:32:47;;;;;;;8.98;6.30;;;;;;;2.03;58.93;101580.38;5009027;28;20153;-80
2022/03/01 01:35:14;;;;;;;9.30;6.87;;;;;;;2.06;59.18;101586.47;5019042;28;20168;-81
2022/03/01 01:37:43;;;;;;;11.02;6.82;;;;;;;2.03;59.24;101591.34;5020447;28;20061;-79
2022/03/01 01:40:13;;;;;;;9.85;6.38;;;;;;;2.02;59.57;101589.69;5018606;28;20483;-80
2022/03/01 01:42:42;;;;;;;9.27;6.68;;;;;;;2.03;59.56;101585.88;5018353;28;20056;-80
2022/03/01 01:45:10;;;;;;;9.98;7.38;;;;;;;2.01;60.10;101581.66;5018804;28;20054;-80
2022/03/01 01:47:38;;;;;;;8.77;6.38;;;;;;;1.98;59.89;101584.91;5018626;28;20053;-80
2022/03/01 01:50:07;;;;;;;11.02;7.18;;;;;;;2.00;60.13;101580.84;5010018;28;20525;-80
2022/03/01 01:52:35;;;;;;;9.63;6.50;;;;;;;2.01;60.49;101585.25;5009259;28;20050;-80
2022/03/01 01:55:05;;;;;;;9.90;6.60;;;;;;;2.01;60.30;101585.25;5008026;28;20083;-80
2022/03/01 01:57:32;;;;;;;;;;;;;;;1.98;60.51;101582.97;5008092;28;20494;-81
2022/03/01 02:00:01;;;;;;;9.02;6.03;;;;;;;1.94;59.70;101589.16;5011092;28;19922;-81
2022/03/01 02:02:28;;;;;;;9.40;6.03;;;;;;;1.88;60.31;101585.41;5015553;28;20077;-79
2022/03/01 02:04:55;;;;;;;8.65;6.25;;;;;;;1.90;59.84;101575.03;5013192;28;20049;-81
2022/03/01 02:07:23;;;;;;;12.05;7.55;;;;;;;1.87;59.79;101589.25;5011381;28;20539;-80
2022/03/01 02:09:52;;;;;;;10.10;6.72;;;;;;;1.87;59.63;101592.00;5011328;28;20050;-80
2022/03/01 02:12:19;;;;;;;9.60;6.45;;;;;;;1.74;60.39;101582.00;5005106;28;20050;-80
2022/03/01 02:14:47;;;;;;;9.32;6.35;;;;;;;1.74;60.22;101587.50;4999760;28;20048;-80
2022/03/01 02:17:16;;;;;;;10.02;7.20;;;;;;;1.76;60.49;101592.75;5000003;28;20055;-80
2022/03/01 02:19:48;;;;;;;10.77;7.00;;;;;;;1.71;59.84;101587.94;5017539;28;20053;-80
2022/03/01 02:22:16;;;;;;;9.43;6.55;;;;;;;1.72;59.86;101583.28;5013055;28;20064;-80
2022/03/01 02:24:44;;;;;;;11.88;7.30;;;;;;;1.67;60.49;101585.88;5006614;28;20062;-81
2022/03/01 02:27:12;;;;;;;9.35;6.90;;;;;;;1.67;60.48;101581.22;5008271;28;20435;-80
2022/03/01 02:29:39;;;;;;;10.85;7.30;;;;;;;1.60;60.16;101581.28;5017284;28;20053;-81
2022/03/01 02:32:09;;;;;;;9.45;6.72;;;;;;;1.61;60.24;101582.13;5010488;28;20432;-81
2022/03/01 02:34:37;;;;;;;12.32;7.97;;;;;;;1.64;59.99;101589.94;5010234;28;20052;-81
2022/03/01 02:37:05;;;;;;;10.80;7.65;;;;;;;1.65;60.65;101594.34;5019999;28;20053;-82
2022/03/01 02:39:35;;;;;;;9.73;6.60;;;;;;;1.64;60.53;101584.44;5018390;28;20049;-81
2022/03/01 02:42:02;;;;;;;10.57;7.50;;;;;;;1.64;60.54;101587.19;5008750;28;20392;-81
2022/03/01 02:44:29;;;;;;;10.48;6.80;;;;;;;1.65;60.53;101582.53;5013083;28;20510;-80
2022/03/01 02:46:56;;;;;;;12.13;7.38;;;;;;;1.65;60.13;101583.34;5011893;28;20058;-81
2022/03/01 02:49:24;;;;;;;11.70;7.20;;;;;;;1.64;60.43;101584.44;5012614;28;20065;-81
2022/03/01 02:51:51;;;;;;;10.05;6.82;;;;;;;1.62;60.39;101581.91;5007777;28;20042;-81
2022/03/01 02:54:19;;;;;;;10.13;7.18;;;;;;;1.57;60.34;101576.25;5007612;28;20058;-81
2022/03/01 02:56:48;;;;;;;11.20;7.30;;;;;;;1.56;60.79;101582.81;5008307;28;20065;-81
2022/03/01 02:59:15;;;;;;;11.63;8.32;;;;;;;1.56;60.18;101587.47;5011810;28;20043;-81
2022/03/01 03:01:42;;;;;;;10.45;7.68;;;;;;;1.55;60.43;101594.00;5003408;28;20058;-81
2022/03/01 03:04:09;;;;;;;11.70;7.57;;;;;;;1.53;60.58;101580.50;5004092;28;20411;-81
2022/03/01 03:06:36;;;;;;;10.93;7.18;;;;;;;1.56;60.65;101587.47;5005126;28;20054;-81
2022/03/01 03:09:04;;;;;;;9.70;7.00;;;;;;;1.56;60.10;101591.06;5015844;28;20046;-80
2022/03/01 03:11:31;;;;;;;10.98;7.25;;;;;;;1.56;60.58;101584.72;5021914;28;20058;-81
2022/03/01 03:14:00;;;;;;;11.55;7.13;;;;;;;1.47;60.34;101589.69;5021389;28;20061;-82
2022/03/01 03:16:27;;;;;;;10.25;6.65;;;;;;;1.42;60.33;101584.00;5002814;28;20069;-80
2022/03/01 03:18:55;;;;;;;9.98;7.43;;;;;;;1.39;60.66;101579.81;5008191;28;20506;-81
2022/03/01 03:21:22;;;;;;;12.10;7.57;;;;;;;1.40;60.55;101578.72;5017350;28;20054;-82
2022/03/01 03:23:52;;;;;;;11.00;6.90;;;;;;;1.38;60.68;101574.53;5021654;28;20483;-81
2022/03/01 03:26:19;;;;;;;10.90;7.57;;;;;;;1.25;61.37;101570.03;5020669;28;20046;-82
2022/03/01 03:28:47;;;;;;;10.52;6.68;;;;;;;1.21;61.43;101564.13;5018800;28;20057;-82
2022/03/01 03:31:16;;;;;;;12.40;8.32;;;;;;;1.17;61.34;101565.66;5015186;28;20057;-82
2022/03/01 03:33:43;;;;;;;10.63;7.72;;;;;;;1.21;61.29;101558.66;5013936;28;20057;-82
2022/03/01 03:36:11;;;;;;;11.13;8.13;;;;;;;1.25;61.29;101560.97;5012880;28;20054;-82
2022/03/01 03:38:38;;;;;;;13.45;8.85;;;;;;;1.26;61.19;101566.22;5015992;28;20065;-81
2022/03/01 03:41:05;;;;;;;12.80;8.57;;;;;;;1.32;61.33;101554.31;5018226;28;20494;-82
2022/03/01 03:43:33;;;;;;;10.13;7.07;;;;;;;1.34;61.28;101563.16;5014164;28;20545;-81
2022/03/01 03:46:00;;;;;;;10.48;7.70;;;;;;;1.35;61.57;101559.38;5003293;28;20050;-82
2022/03/01 03:48:29;;;;;;;10.27;6.90;;;;;;;1.32;61.19;101551.56;5011540;28;20062;-81
2022/03/01 04:11:12;;;;;;;13.98;8.18;;;;;;;1.46;61.20;101524.84;3687020;28;21769;-80
2022/03/01 04:13:40;;;;;;;9.70;7.13;;;;;;;1.50;61.19;101520.56;4218348;28;20054;-79
2022/03/01 04:16:07;;;;;;;11.63;7.47;;;;;;;1.58;60.87;101520.28;5017084;28;20423;-81
2022/03/01 04:18:35;;;;;;;10.40;7.68;;;;;;;1.57;61.49;101515.84;5020056;28;20049;-80
2022/03/01 04:21:04;;;;;;;12.00;7.78;;;;;;;1.65;60.72;101516.63;5019688;28;20046;-81
2022/03/01 04:23:32;;;;;;;10.07;7.20;;;;;;;1.67;61.05;101506.25;5019751;28;20442;-81
2022/03/01 04:25:59;;;;;;;11.30;7.68;;;;;;;1.66;61.06;101510.91;5019607;28;20057;-82
2022/03/01 04:28:28;;;;;;;11.18;7.47;;;;;;;1.60;61.35;101507.16;5019152;28;20053;-82
2022/03/01 04:30:55;;;;;;;12.25;7.90;;;;;;;1.65;61.14;101500.97;5019416;28;20381;-81
2022/03/01 04:33:23;;;;;;;10.95;7.55;;;;;;;1.69;61.21;101515.09;5017788;28;20056;-82
2022/03/01 04:35:51;;;;;;;11.73;7.78;;;;;;;1.68;61.32;101511.50;5019327;28;20054;-82
2022/03/01 04:38:20;;;;;;;9.65;6.45;;;;;;;1.68;61.46;101518.88;5010297;28;20064;-81
2022/03/01 04:40:50;;;;;;;11.10;7.67;;;;;;;1.64;61.49;101518.53;5013767;28;20503;-81
2022/03/01 04:43:18;;;;;;;13.15;9.07;;;;;;;1.57;62.24;101520.50;5017773;28;20061;-81
2022/03/01 04:45:47;;;;;;;13.25;7.95;;;;;;;1.58;62.63;101513.94;5017855;28;20076;-81
2022/03/01 04:48:14;;;;;;;11.50;7.75;;;;;;;1.57;62.37;101513.09;5014291;28;20073;-80
2022/03/01 04:50:42;;;;;;;12.65;8.38;;;;;;;1.52;62.38;101506.63;5014088;28;20408;-80
2022/03/01 04:53:10;;;;;;;11.13;7.57;;;;;;;1.45;63.02;101509.44;5008928;28;20057;-80
2022/03/01 04:55:38;;;;;;;11.88;7.50;;;;;;;1.51;62.49;101507.69;5013414;28;20141;-81
2022/03/01 04:58:05;;;;;;;10.63;7.38;;;;;;;1.52;62.67;101507.44;5007675;28;20050;-81
2022/03/01 05:00:33;;;;;;;11.82;8.27;;;;;;;1.54;62.85;101516.31;5008519;28;20053;-81
2022/03/01 05:03:02;;;;;;;13.32;8.38;;;;;;;1.56;62.41;101510.59;5018922;28;20049;-81
2022/03/01 05:05:29;;;;;;;11.13;8.13;;;;;;;1.54;62.62;101509.97;5015376;28;20065;-82
2022/03/01 05:07:57;;;;;;;12.85;7.32;;;;;;;1.58;62.60;101513.94;5018278;28;20418;-82
2022/03/01 05:10:24;;;;;;;11.45;7.82;;;;;;;1.63;62.23;101514.09;5012238;28;20488;-82
2022/03/01 05:12:54;;;;;;;13.27;8.05;;;;;;;1.65;62.19;101503.72;5005669;28;20046;-82
2022/03/01 05:15:24;;;;;;;11.63;7.80;;;;;;;1.68;62.27;101513.38;5015948;28;20069;-81
2022/03/01 05:17:51;;;;;;;11.27;8.00;;;;;;;1.71;62.39;101521.19;5023320;28;20462;-82
2022/03/01 05:20:22;;;;;;;13.25;8.20;;;;;;;1.71;62.38;101522.03;5021093;28;20137;-81
2022/03/01 05:22:49;;;;;;;;;;;;;;;1.74;63.24;101526.22;5011387;28;20058;-81
2022/03/01 05:25:20;;;;;;;13.80;8.50;;;;;;;1.75;62.78;101527.91;5014885;28;19921;-81
2022/03/01 05:27:49;;;;;;;12.52;9.13;;;;;;;1.79;63.36;101523.63;5019796;28;20050;-81
2022/03/01 05:30:18;;;;;;;9.10;7.53;;;;;;;1.80;63.07;101536.28;5007787;28;20057;-82
2022/03/01 05:32:48;;;;;;;13.10;8.70;;;;;;;1.81;62.91;101533.31;5018346;28;20047;-81
2022/03/01 05:35:17;;;;;;;12.77;8.88;;;;;;;1.84;62.82;101543.00;5020204;28;20056;-82
2022/03/01 05:37:49;;;;;;;12.23;8.80;;;;;;;1.87;62.71;101542.56;5021095;28;20065;-81
2022/03/01 05:40:17;;;;;;;12.10;8.82;;;;;;;1.90;61.71;101547.56;5022889;28;20479;-81
2022/03/01 05:42:45;;;;;;;11.75;8.48;;;;;;;1.90;61.63;101544.81;5022780;28;20062;-81
2022/03/01 05:45:13;;;;;;;11.98;7.90;;;;;;;1.94;61.88;101557.03;5017922;28;20046;-80
2022/03/01 05:47:41;;;;;;;10.20;7.32;;;;;;;1.87;61.27;101553.53;5020685;28;20056;-80
2022/03/01 05:50:11;;;;;;;10.88;7.93;;;;;;;1.87;61.80;101567.28;5021404;28;20057;-81
2022/03/01 05:52:38;;;;;;;12.32;8.20;;;;;;;1.92;60.85;101558.34;5020566;28;20046;-81
2022/03/01 05:55:09;;;;;;;13.43;8.27;;;;;;;1.96;60.74;101559.56;5018884;28;20050;-81
2022/03/01 05:57:38;;;;;;;12.68;8.48;;;;;;;1.95;61.09;101555.97;5013420;28;20050;-82
2022/03/01 06:00:07;;;;;;;13.00;9.27;;;;;;;1.96;60.40;101551.31;5002117;28;20054;-81
2022/03/01 06:02:35;;;;;;;13.38;8.35;;;;;;;1.90;60.79;101547.56;5019330;28;20057;-82
2022/03/01 06:05:02;;;;;;;13.95;10.00;;;;;;;1.98;60.38;101543.69;5013792;28;20054;-82
2022/03/01 06:07:29;;;;;;;13.60;8.38;;;;;;;2.08;60.48;101554.97;5012628;28;20054;-82
2022/03/01 06:09:56;;;;;;;12.60;8.80;;;;;;;2.11;59.71;101553.66;5017488;28;20407;-82
2022/03/01 06:12:25;;;;;;;13.68;8.60;;;;;;;2.16;60.21;101545.53;5018649;28;20046;-82
2022/03/01 06:14:52;;;;;;;12.60;9.25;;;;;;;2.24;59.55;101539.72;5021530;28;20065;-82
2022/03/01 06:17:20;;;;;;;14.70;8.90;;;;;;;2.32;59.91;101533.91;5022100;28;20507;-83
2022/03/01 06:19:48;;;;;;;12.02;8.32;;;;;;;2.38;59.09;101532.16;5021004;28;20058;-81
2022/03/01 06:22:15;;;;;;;12.43;7.88;;;;;;;2.47;58.87;101536.22;5022735;28;20050;-81
2022/03/01 06:24:44;;;;;;;14.18;9.13;;;;;;;2.51;59.09;101542.09;5018836;28;20061;-81
2022/03/01 06:27:11;;;;;;;13.43;8.55;;;;;;;2.61;58.47;101542.38;5023676;28;20053;-82
2022/03/01 06:29:41;;;;;;;14.30;8.45;;;;;;;2.70;58.38;101545.63;5008865;28;20046;-82
2022/03/01 06:32:09;;;;;;;;;;;;;;;2.74;59.03;101546.84;5002575;28;20054;-82
2022/03/01 06:34:36;;;;;;;14.60;8.93;;;;;;;2.84;58.02;101541.59;5002749;28;19937;-82
2022/03/01 06:37:04;;;;;;;13.60;8.85;;;;;;;2.98;57.82;101547.69;5019118;28;20049;-82
2022/03/01 06:39:32;;;;;;;14.63;9.77;;;;;;;3.14;58.10;101551.69;5020362;28;20076;-81
2022/03/01 06:42:00;;;;;;;20.92;10.77;;;;;;;3.23;57.58;101555.75;5019731;28;20057;-82
2022/03/01 06:44:27;;;;;;;24.40;12.30;;;;;;;3.38;57.36;101558.88;5023442;28;20057;-84
2022/03/01 06:46:56;;;;;;;21.98;11.98;;;;;;;3.54;57.20;101557.31;5026063;28;20054;-81
2022/03/01 06:49:23;;;;;;;26.58;12.63;;;;;;;3.65;56.53;101553.72;5016745;28;20053;-80
2022/03/01 06:51:51;;;;;;;26.52;14.27;;;;;;;3.84;56.76;101551.66;5012726;28;20046;-81
2022/03/01 06:54:18;;;;;;;21.98;12.40;;;;;;;4.71;55.76;101544.22;5009348;28;20050;-80
2022/03/01 06:56:46;;;;;;;20.67;12.73;;;;;;;5.96;52.67;101538.41;5020660;28;20053;-80
2022/03/01 06:59:14;;;;;;;20.95;12.43;;;;;;;6.68;50.58;101536.44;5008742;28;20069;-80
2022/03/01 07:01:42;;;;;;;19.25;11.55;;;;;;;7.40;49.76;101540.63;5009494;28;20060;-81
2022/03/01 07:04:10;;;;;;;23.27;13.23;;;;;;;8.86;46.17;101531.50;5009972;28;20053;-82
2022/03/01 07:06:38;;;;;;;21.90;13.02;;;;;;;9.94;43.77;101529.38;5021340;28;20483;-79
2022/03/01 07:09:05;;;;;;;25.25;14.35;;;;;;;11.03;41.20;101524.00;5021283;28;20054;-79
2022/03/01 07:11:33;;;;;;;24.90;15.10;;;;;;;12.22;39.13;101528.06;5019712;28;20061;-79
2022/03/01 07:14:00;;;;;;;31.55;16.75;;;;;;;13.42;36.66;101515.56;5019988;28;20069;-81
2022/03/01 07:16:27;;;;;;;31.67;19.17;;;;;;;14.32;33.85;101517.94;5019922;28;20053;-81
2022/03/01 07:18:55;;;;;;;29.45;17.85;;;;;;;15.41;32.30;101518.69;5002770;28;20054;-80
2022/03/01 07:21:24;;;;;;;21.33;13.90;;;;;;;16.04;30.19;101524.25;5015767;28;20053;-81
2022/03/01 07:23:51;;;;;;;25.90;15.98;;;;;;;16.79;30.04;101524.22;5017662;28;20050;-80
2022/03/01 07:26:19;;;;;;;19.15;12.77;;;;;;;17.43;28.75;101529.97;5017757;28;20054;-80
2022/03/01 07:28:48;;;;;;;19.55;12.95;;;;;;;18.26;26.51;101525.81;4998429;28;20416;-81
2022/03/01 07:31:16;;;;;;;16.17;11.20;;;;;;;17.40;27.75;101532.63;5000613;28;20057;-81
2022/03/01 07:33:43;;;;;;;20.13;12.80;;;;;;;16.26;29.02;101536.56;5002765;28;20045;-81
2022/03/01 07:36:11;;;;;;;25.48;13.05;;;;;;;15.22;29.97;101532.94;5012667;28;20050;-81
2022/03/01 07:38:39;;;;;;;21.50;11.40;;;;;;;14.72;29.90;101535.00;5010491;28;20046;-82
2022/03/01 07:41:07;;;;;;;18.83;10.80;;;;;;;14.54;30.01;101537.63;5013209;28;20046;-83
2022/03/01 07:43:35;;;;;;;15.23;10.20;;;;;;;14.62;29.10;101541.69;5012677;28;20026;-83
2022/03/01 07:46:05;;;;;;;16.65;11.70;;;;;;;14.54;29.88;101534.81;5020566;28;20060;-82
2022/03/01 07:48:32;;;;;;;;;;;;;;;13.83;30.97;101536.34;5028833;28;20054;-82
2022/03/01 07:50:59;;;;;;;14.68;10.80;;;;;;;13.63;31.42;101543.16;5019200;28;19925;-84
2022/03/01 07:53:28;;;;;;;15.30;10.40;;;;;;;13.35;31.20;101538.34;5029661;28;20054;-83
2022/03/01 07:55:59;;;;;;;14.93;10.83;;;;;;;13.15;32.01;101541.47;5017601;28;20061;-83
2022/03/01 07:58:27;;;;;;;15.98;10.68;;;;;;;13.00;32.36;101536.97;5005990;28;20065;-83
2022/03/01 08:00:55;;;;;;;11.32;8.00;;;;;;;12.46;29.46;101529.97;5011862;28;20050;-83
2022/03/01 08:03:22;;;;;;;14.13;9.65;;;;;;;12.71;30.50;101526.78;5011593;28;20076;-83
2022/03/01 08:05:51;;;;;;;13.88;9.50;;;;;;;12.72;31.66;101536.81;5015918;28;20053;-83
2022/03/01 08:08:18;;;;;;;12.80;9.82;;;;;;;12.88;32.17;101543.03;5014358;28;20049;-83
2022/03/01 08:10:45;;;;;;;13.68;10.52;;;;;;;12.99;33.11;101541.72;5009910;28;20050;-82
2022/03/01 08:13:14;;;;;;;15.38;9.80;;;;;;;13.22;32.05;101530.72;5012557;28;20057;-82
2022/03/01 08:15:41;;;;;;;15.45;9.45;;;;;;;12.93;32.64;101537.34;5014414;28;20064;-83
2022/03/01 08:18:09;;;;;;;19.45;10.77;;;;;;;12.94;31.67;101533.41;5004904;28;20058;-82
2022/03/01 08:20:36;;;;;;;12.95;8.90;;;;;;;13.12;30.01;101536.47;5004668;28;20542;-82
2022/03/01 08:23:03;;;;;;;13.20;9.50;;;;;;;13.44;29.93;101527.28;4999605;28;20484;-82
2022/03/01 08:25:31;;;;;;;12.40;9.52;;;;;;;14.01;29.94;101522.25;4995852;28;20517;-83
2022/03/01 08:27:58;;;;;;;12.60;9.52;;;;;;;14.45;29.14;101525.50;5001506;28;20058;-82
2022/03/01 08:30:27;;;;;;;12.45;9.25;;;;;;;15.34;28.65;101523.91;5012922;28;20403;-83
2022/03/01 08:32:55;;;;;;;17.63;9.65;;;;;;;16.72;27.10;101515.47;5007895;28;20410;-83
2022/03/01 08:35:23;;;;;;;16.67;9.98;;;;;;;18.33;24.53;101514.00;5026882;28;20053;-83
2022/03/01 08:37:51;;;;;;;16.42;10.43;;;;;;;20.35;23.06;101502.22;5008821;28;20058;-83
2022/03/01 08:40:21;;;;;;;16.52;11.93;;;;;;;21.48;20.76;101512.50;5000631;28;20566;-83
2022/03/01 08:42:48;;;;;;;11.35;7.50;;;;;;;22.01;19.22;101503.72;5015921;28;20058;-84
2022/03/01 08:45:16;;;;;;;9.02;7.35;;;;;;;23.14;17.96;101507.84;5006836;28;20055;-83
2022/03/01 08:47:44;;;;;;;8.98;6.70;;;;;;;23.45;16.62;101504.00;5014675;28;20435;-83
2022/03/01 08:50:12;;;;;;;9.30;6.80;;;;;;;23.17;16.78;101507.13;5014170;28;20046;-83
2022/03/01 08:52:40;;;;;;;9.60;7.15;;;;;;;22.91;16.65;101497.25;5014574;28;20053;-83
2022/03/01 08:55:09;;;;;;;7.95;6.03;;;;;;;23.64;16.25;101495.41;5014685;28;20058;-83
2022/03/01 08:57:37;;;;;;;8.50;6.95;;;;;;;25.04;15.22;101497.53;5015197;28;20053;-82
2022/03/01 09:00:08;;;;;;;9.50;6.83;;;;;;;25.28;14.95;101501.06;5014546;28;20514;-83
2022/03/01 09:02:35;;;;;;;9.35;6.38;;;;;;;25.31;14.42;101503.97;4998757;28;20129;-83
2022/03/01 09:05:05;;;;;;;9.30;7.20;;;;;;;24.26;15.38;101498.06;5011257;28;20414;-82
2022/03/01 09:07:33;;;;;;;8.52;6.50;;;;;;;24.83;14.53;101500.13;5014686;28;20269;-81
2022/03/01 09:10:00;;;;;;;10.38;7.22;;;;;;;26.08;13.48;101500.59;5016409;28;20133;-83
2022/03/01 09:12:27;;;;;;;9.25;6.80;;;;;;;26.98;12.92;101489.69;5013655;28;20622;-82
2022/03/01 09:14:55;;;;;;;9.10;6.97;;;;;;;27.94;12.54;101492.75;5013943;28;20054;-83
2022/03/01 09:17:22;;;;;;;8.75;6.78;;;;;;;28.87;12.04;101483.16;5013625;28;20058;-82
2022/03/01 09:19:50;;;;;;;8.38;6.35;;;;;;;29.79;11.60;101485.09;5012065;28;20446;-83
2022/03/01 09:22:18;;;;;;;8.40;6.72;;;;;;;30.25;10.91;101480.94;5007652;28;20067;-80
2022/03/01 09:24:45;;;;;;;7.80;7.00;;;;;;;30.39;10.59;101489.47;4998841;28;20058;-80
2022/03/01 09:27:13;;;;;;;9.70;7.43;;;;;;;30.77;9.84;101491.50;5000073;28;20054;-81
2022/03/01 09:29:41;;;;;;;7.72;6.65;;;;;;;31.23;9.74;101484.31;5021516;28;20056;-80
2022/03/01 09:32:08;;;;;;;8.00;6.40;;;;;;;30.05;10.26;101503.72;5010610;28;20054;-78
2022/03/01 09:34:35;;;;;;;7.13;6.35;;;;;;;29.10;10.65;101501.91;5003083;28;20049;-81
2022/03/01 09:37:03;;;;;;;9.15;7.40;;;;;;;28.16;11.49;101501.34;5013604;28;20049;-81
2022/03/01 09:39:32;;;;;;;9.13;7.43;;;;;;;27.19;11.75;101500.38;5007888;28;20422;-79
2022/03/01 09:42:00;;;;;;;8.18;7.30;;;;;;;25.77;12.53;101507.69;5016539;28;20060;-80
2022/03/01 09:44:28;;;;;;;11.60;8.38;;;;;;;25.25;13.03;101507.56;5016372;28;20061;-82
2022/03/01 09:46:55;;;;;;;10.23;6.88;;;;;;;23.97;13.54;101510.22;5009640;28;20061;-82
2022/03/01 09:49:23;;;;;;;9.15;7.10;;;;;;;23.42;14.12;101508.44;5013395;28;20061;-82
2022/03/01 09:51:51;;;;;;;8.02;6.40;;;;;;;23.16;14.38;101509.16;5016308;28;20057;-80
2022/03/01 09:54:18;;;;;;;10.38;7.10;;;;;;;23.06;14.43;101512.59;5014847;28;20061;-78
2022/03/01 09:56:47;;;;;;;9.65;6.53;;;;;;;22.50;14.65;101513.78;5004948;28;20053;-78
2022/03/01 09:59:15;;;;;;;8.45;6.85;;;;;;;22.23;15.45;101513.56;5014936;28;20507;-77
2022/03/01 10:01:48;;;;;;;9.23;7.38;;;;;;;22.23;15.26;101512.75;5015590;28;20053;-80
2022/03/01 10:04:15;;;;;;;9.32;7.07;;;;;;;22.03;15.50;101506.19;5007527;28;20054;-80
2022/03/01 10:06:45;;;;;;;9.18;6.97;;;;;;;21.73;16.05;101517.16;5004972;28;20053;-81
2022/03/01 10:09:17;;;;;;;8.85;7.30;;;;;;;21.39;15.53;101514.63;5009806;28;20065;-83
2022/03/01 10:11:45;;;;;;;9.10;6.80;;;;;;;20.07;16.85;101519.94;5008779;28;20054;-82
2022/03/01 10:14:14;;;;;;;9.35;7.05;;;;;;;19.31;17.37;101510.84;5006172;28;20058;-82
2022/03/01 10:16:44;;;;;;;10.70;7.25;;;;;;;18.10;18.55;101490.94;4998530;28;20061;-82
2022/03/01 10:19:16;;;;;;;9.35;6.93;;;;;;;17.59;19.17;101499.25;5012742;28;20050;-83
2022/03/01 10:21:46;;;;;;;11.25;6.90;;;;;;;17.49;19.50;101490.34;5006652;28;20054;-83
2022/03/01 10:24:15;;;;;;;9.50;7.30;;;;;;;17.34;19.35;101497.34;5005799;28;20380;-82
2022/03/01 10:26:44;;;;;;;8.70;6.50;;;;;;;17.43;20.13;101496.16;5001895;28;20061;-82
2022/03/01 10:29:12;;;;;;;9.32;6.45;;;;;;;16.57;20.18;101511.16;5001374;28;20481;-81
2022/03/01 10:31:41;;;;;;;8.02;6.70;;;;;;;17.63;19.55;101500.22;5018681;28;20054;-81
2022/03/01 10:34:10;;;;;;;7.72;6.10;;;;;;;18.11;19.03;101509.50;5019421;28;20050;-83
2022/03/01 10:36:46;;;;;;;9.10;6.25;;;;;;;20.31;18.62;101492.84;5015217;28;20051;-84
2022/03/01 10:39:15;;;;;;;8.57;6.95;;;;;;;22.08;15.64;101483.19;5008294;28;20413;-83
2022/03/01 10:41:45;;;;;;;7.82;6.07;;;;;;;22.87;15.61;101493.50;5009259;28;20061;-82
2022/03/01 10:44:14;;;;;;;9.00;6.50;;;;;;;23.32;14.81;101500.50;5005545;28;20062;-82
2022/03/01 10:46:46;;;;;;;7.80;6.88;;;;;;;24.45;13.62;101511.38;4997332;28;20077;-82
2022/03/01 10:49:15;;;;;;;7.97;6.75;;;;;;;24.82;13.49;101504.16;5012900;28;20050;-82
2022/03/01 10:51:50;;;;;;;7.40;6.10;;;;;;;25.72;13.56;101505.97;5016015;28;20049;-83
2022/03/01 10:54:25;;;;;;;7.68;6.28;;;;;;;26.19;12.68;101507.22;5016922;28;20062;-82
2022/03/01 10:56:55;;;;;;;7.20;6.40;;;;;;;26.21;13.69;101507.66;5016749;28;20054;-82
2022/03/01 10:59:24;;;;;;;8.55;6.35;;;;;;;26.52;12.39;101509.06;5016353;28;20053;-81
2022/03/01 11:01:56;;;;;;;9.57;7.25;;;;;;;26.95;12.13;101505.63;5008259;28;20057;-83
2022/03/01 11:04:26;;;;;;;7.93;6.20;;;;;;;26.17;12.59;101495.38;5010853;28;20053;-84
2022/03/01 11:06:54;;;;;;;9.45;7.18;;;;;;;25.62;12.56;101515.25;5004899;28;20062;-83
2022/03/01 11:09:25;;;;;;;8.30;6.30;;;;;;;25.15;13.17;101513.94;5010891;28;20065;-83
2022/03/01 11:11:55;;;;;;;7.65;6.65;;;;;;;24.62;13.06;101504.31;5001164;28;20064;-83
2022/03/01 11:14:24;;;;;;;;;;;;;;;23.72;14.10;101504.88;5010523;28;20134;-83
2022/03/01 11:17:00;;;;;;;8.68;6.55;;;;;;;23.85;13.73;101502.69;5016904;28;19925;-84
2022/03/01 11:19:46;;;;;;;8.07;7.13;;;;;;;23.61;13.91;101501.84;5023100;28;20507;-84
2022/03/01 11:22:20;;;;;;;8.15;6.90;;;;;;;23.03;14.90;101502.78;5017387;28;20058;-85
2022/03/01 11:24:49;;;;;;;8.35;6.80;;;;;;;23.51;15.10;101496.78;4997176;28;20058;-84
2022/03/01 11:27:20;;;;;;;9.18;7.85;;;;;;;23.82;14.44;101503.47;4998229;28;20516;-85
2022/03/01 11:29:48;;;;;;;11.02;8.45;;;;;;;24.21;14.37;101497.56;5003344;28;20050;-84
2022/03/01 11:32:19;;;;;;;8.93;7.47;;;;;;;25.20;13.55;101497.34;5010783;28;20050;-82
2022/03/01 11:34:46;;;;;;;8.43;7.53;;;;;;;25.83;12.82;101504.06;5018649;28;20056;-83
2022/03/01 11:37:17;;;;;;;8.48;7.30;;;;;;;25.81;13.08;101503.63;5019354;28;20399;-82
2022/03/01 11:39:45;;;;;;;8.02;6.95;;;;;;;24.33;13.90;101499.38;5019336;28;21537;-82
2022/03/01 11:42:21;;;;;;;9.80;7.53;;;;;;;23.35;14.30;101496.94;5018566;28;20054;-82
2022/03/01 11:44:50;;;;;;;10.13;7.15;;;;;;;23.07;14.80;101500.84;5018638;28;20053;-82
2022/03/01 11:47:31;;;;;;;8.48;6.82;;;;;;;22.19;15.25;101489.94;5017597;28;20061;-83
2022/03/01 11:50:09;;;;;;;8.40;6.72;;;;;;;22.13;16.27;101493.44;5010718;28;20429;-84